Terminal Aerodrome Forecast
Issued by NWS Pocatello, ID

Home | Current Version | Previous Version | Text Only | Print | Product List | Glossary On
Versions: 1 2 3 4 5 6 7 8 9 10 11 12 13 14 15 16 17 18 19 20
000
FTUS45 KPIH 231100
TAFIDA
TAF
KIDA 231120Z 2312/2412 VRB05KT P6SM BKN120
     FM231800 22014KT P6SM SCT080 BKN120
     FM240300 22011KT P6SM OVC070=

USA.gov is the U.S. government's official web portal to all federal, state and local government web resources and services.